CheckWX is a tool to help pilots better visualize weather data.  It is not intended as a substitute for an official pre-flight weather briefing.

05:41:26 UTC

KOFK TAF
Norfolk Regional / Karl Stefan Memorial Field Airport
Norfolk, Nebraska, USA
KOFK 302320Z 3100/3124 14009KT P6SM OVC100 FM310600 16005KT P6SM VCSH OVC050 FM311600 18012KT P6SM SCT050 BKN120

Mar-31@
00:00 UTC

Mar-31 @ 00:00 UTC

Mar-31@
06:00 UTC

Mar-31 @ 06:00 UTC

TAF KOFK 302320Z 3100/3124 14009KT P6SM OVC100
Wind
  • 140° at 9 KTS
Cloud Levels
  • Overcast at 10,000' AGL

Mar-31@
06:00 UTC

Mar-31 @ 06:00 UTC

Mar-31@
16:00 UTC

Mar-31 @ 16:00 UTC

FM310600 16005KT P6SM VCSH OVC050

From

From Standard forecast or significant change

Wind
  • 160° at 5 KTS
Conditions
Area Showers
Cloud Levels
  • Overcast at 5,000' AGL

Mar-31@
16:00 UTC

Mar-31 @ 16:00 UTC

Apr-1@
00:00 UTC

Apr-1 @ 00:00 UTC

FM311600 18012KT P6SM SCT050 BKN120

From

From Standard forecast or significant change

Wind
  • 180° at 12 KTS
Cloud Levels
  • Scattered at 5,000' AGL
  • Broken at 12,000' AGL